West Sunbury, Pennsylvania
Current Conditions -  °F | °C
As of 5:15 AM on Friday 19 Dec 2014 (Local Time) from KBTP Reporting Station
Overcast Overcast  
Wind Chill: 17°   Ceiling: 600
Heat Index: 27°   Visibility: 3mi
Dew Point: 25°   Wind: 9mph
Humidity: 93%   Direction: 250°WSW
Pressure: 30.13"   Gusts: NA
Location:  41.01°N, 79.9°W
Report Text: KBTP 191015Z AUTO 25008KT 3SM OVC006 M03/M04 A3013 RMK AO1
Loading
Personal Weather Stations






























Interactive Weather Map New forecast layout! Learn more

10-Day Weather Forecast

Advertisements
Track Severe Weather on mobile